Time;durP1;ratioP1;P1;durP2;ratioP2;P2;SDS_P1;SDS_P2;PMS_P1;PMS_P2;Temp;Humidity;BMP_temperature;BMP_pressure;BME280_temperature;BME280_humidity;BME280_pressure;Samples;Min_cycle;Max_cycle;Signal;HPM_P1;HPM_P2
2022/06/08 00:00:18;;;;;;;13.50;10.57;;;17.80;73.60;;;;;;5040798;28;20036;-69
2022/06/08 00:02:48;;;;;;;16.83;12.07;;;17.80;73.80;;;;;;5038006;28;20087;-69
2022/06/08 00:05:14;;;;;;;17.42;12.07;;;17.70;73.80;;;;;;5047609;28;20036;-69
2022/06/08 00:07:40;;;;;;;16.10;11.65;;;17.70;73.90;;;;;;5039891;28;20038;-69
2022/06/08 00:10:07;;;;;;;15.43;11.50;;;17.70;74.00;;;;;;5046987;28;20110;-69
2022/06/08 00:12:34;;;;;;;16.15;11.45;;;17.70;74.20;;;;;;5046730;28;20033;-69
2022/06/08 00:14:59;;;;;;;16.63;11.65;;;17.70;74.30;;;;;;5044828;28;20115;-69
2022/06/08 00:17:26;;;;;;;16.17;11.82;;;17.60;74.30;;;;;;5044630;28;20128;-69
2022/06/08 00:19:52;;;;;;;14.85;11.27;;;17.60;74.40;;;;;;5045748;28;20025;-69
2022/06/08 00:22:18;;;;;;;13.95;11.25;;;17.60;74.50;;;;;;5044921;28;20041;-69
2022/06/08 00:24:45;;;;;;;16.77;11.90;;;17.60;74.60;;;;;;5038228;28;20098;-69
2022/06/08 00:27:12;;;;;;;18.67;12.32;;;17.60;74.70;;;;;;5036011;28;20033;-69
2022/06/08 00:29:38;;;;;;;14.52;11.73;;;17.50;74.70;;;;;;5043636;28;20041;-69
2022/06/08 00:32:04;;;;;;;16.23;12.13;;;17.50;74.80;;;;;;5048414;28;20025;-69
2022/06/08 00:34:30;;;;;;;14.65;10.68;;;17.50;74.90;;;;;;5027159;28;20029;-69
2022/06/08 00:36:56;;;;;;;14.68;11.02;;;17.50;75.00;;;;;;5036929;28;20381;-69
2022/06/08 00:39:22;;;;;;;14.13;10.52;;;17.50;75.10;;;;;;5023967;28;20025;-69
2022/06/08 00:41:58;;;;;;;16.98;11.95;;;17.50;75.20;;;;;;5052952;28;20112;-69
2022/06/08 00:44:49;;;;;;;16.23;11.23;;;17.50;75.40;;;;;;5038973;28;20028;-69
2022/06/08 00:47:38;;;;;;;14.93;11.43;;;17.50;75.40;;;;;;5042736;28;20084;-69
2022/06/08 00:50:15;;;;;;;15.85;11.63;;;17.50;75.40;;;;;;5031312;28;20030;-69
2022/06/08 00:52:43;;;;;;;16.17;11.40;;;17.50;75.50;;;;;;5048662;28;20466;-69
2022/06/08 00:55:12;;;;;;;16.50;11.88;;;17.50;75.60;;;;;;5039512;28;20030;-69
2022/06/08 00:57:39;;;;;;;14.32;11.50;;;17.50;75.70;;;;;;5039762;28;20041;-69
2022/06/08 01:00:12;;;;;;;15.27;11.77;;;17.50;75.80;;;;;;5047101;28;20022;-69
2022/06/08 01:02:38;;;;;;;17.00;12.38;;;17.50;75.80;;;;;;5033665;28;20030;-69
2022/06/08 01:05:19;;;;;;;16.33;12.55;;;17.50;76.50;;;;;;5038148;28;20025;-69
2022/06/08 01:07:46;;;;;;;18.23;12.30;;;17.50;76.00;;;;;;5042119;28;20296;-69
2022/06/08 01:10:19;;;;;;;16.95;11.80;;;17.50;76.00;;;;;;5043428;28;20043;-69
2022/06/08 01:12:46;;;;;;;15.90;12.80;;;17.60;76.00;;;;;;5046794;28;20033;-69
2022/06/08 01:15:16;;;;;;;17.02;12.15;;;17.60;76.10;;;;;;5024859;28;20038;-69
2022/06/08 01:17:42;;;;;;;14.73;11.82;;;17.60;76.10;;;;;;5034806;28;20033;-67
2022/06/08 01:20:10;;;;;;;14.75;11.15;;;17.60;76.10;;;;;;5028032;28;20023;-68
2022/06/08 01:22:36;;;;;;;14.73;11.10;;;17.60;76.20;;;;;;5021831;28;20550;-68
2022/06/08 01:25:04;;;;;;;16.48;12.35;;;17.60;76.20;;;;;;5044110;28;20112;-67
2022/06/08 01:27:39;;;;;;;14.93;11.75;;;17.60;76.30;;;;;;5034021;28;20021;-68
2022/06/08 01:30:22;;;;;;;16.10;11.68;;;17.60;76.30;;;;;;5033037;28;20390;-67
2022/06/08 01:33:20;;;;;;;15.48;11.75;;;17.70;76.30;;;;;;5047816;28;20120;-67
2022/06/08 01:36:06;;;;;;;15.60;11.30;;;17.60;76.30;;;;;;5046361;28;20036;-68
2022/06/08 01:38:40;;;;;;;14.65;11.23;;;17.60;76.30;;;;;;5026088;28;20454;-68
2022/06/08 01:41:11;;;;;;;17.08;12.10;;;17.60;76.30;;;;;;5035200;28;20518;-68
2022/06/08 01:43:43;;;;;;;17.48;12.18;;;17.60;76.40;;;;;;5039225;28;20017;-67
2022/06/08 01:46:14;;;;;;;;;;;17.60;76.40;;;;;;5036223;28;20032;-68
2022/06/08 01:48:46;;;;;;;16.38;10.55;;;17.60;76.30;;;;;;5053718;28;20329;-67
2022/06/08 01:51:28;;;;;;;16.95;10.95;;;17.60;76.50;;;;;;5041924;28;20370;-68
2022/06/08 01:54:04;;;;;;;13.93;10.98;;;17.60;76.60;;;;;;5034893;28;20052;-68
2022/06/08 01:56:39;;;;;;;15.90;11.93;;;17.60;76.60;;;;;;5037012;28;20099;-68
2022/06/08 01:59:09;;;;;;;18.65;11.25;;;17.60;76.70;;;;;;5045207;28;20276;-68
2022/06/08 02:01:46;;;;;;;15.15;11.75;;;17.60;76.70;;;;;;5036098;28;20159;-68
2022/06/08 02:04:25;;;;;;;15.63;12.27;;;17.60;76.80;;;;;;5036225;28;20410;-68
2022/06/08 02:07:21;;;;;;;15.90;11.35;;;17.60;76.80;;;;;;5035256;28;20469;-68
2022/06/08 02:10:12;;;;;;;15.15;11.32;;;17.60;76.90;;;;;;5038956;28;20037;-68
2022/06/08 02:12:44;;;;;;;17.60;12.68;;;17.60;76.90;;;;;;5033004;28;20044;-68
2022/06/08 02:15:30;;;;;;;16.63;12.77;;;17.60;76.90;;;;;;5034400;28;20095;-68
2022/06/08 02:18:04;;;;;;;17.00;12.98;;;17.60;77.00;;;;;;5037546;28;20036;-68
2022/06/08 02:20:44;;;;;;;18.77;12.98;;;17.60;77.00;;;;;;5037527;28;20083;-68
2022/06/08 02:23:19;;;;;;;18.10;13.63;;;17.60;77.10;;;;;;5050709;28;20013;-68
2022/06/08 02:25:51;;;;;;;18.02;14.48;;;17.60;77.10;;;;;;5034937;28;20072;-68
2022/06/08 02:28:29;;;;;;;19.33;14.20;;;17.60;77.10;;;;;;5034774;28;20328;-68
2022/06/08 02:31:02;;;;;;;20.08;14.07;;;17.60;77.30;;;;;;5036824;28;20533;-68
2022/06/08 02:36:25;;;;;;;18.45;14.43;;;17.60;77.40;;;;;;5034991;28;20036;-67
2022/06/08 02:39:03;;;;;;;19.85;14.27;;;17.60;77.40;;;;;;5033907;28;20117;-68
2022/06/08 02:41:31;;;;;;;19.23;14.70;;;17.60;77.50;;;;;;5035333;28;20021;-67
2022/06/08 02:44:01;;;;;;;19.63;14.93;;;17.50;77.40;;;;;;5035296;28;20025;-68
2022/06/08 02:46:58;;;;;;;20.33;15.15;;;17.50;77.60;;;;;;5047072;28;20378;-68
2022/06/08 02:49:28;;;;;;;18.33;14.32;;;17.50;77.60;;;;;;5028372;28;20446;-68
2022/06/08 02:52:01;;;;;;;19.90;14.45;;;17.50;77.60;;;;;;5044399;28;20036;-68
2022/06/08 02:54:28;;;;;;;19.23;14.05;;;17.40;77.70;;;;;;5035385;28;20057;-68
2022/06/08 02:57:11;;;;;;;19.35;15.05;;;17.40;77.70;;;;;;5034435;28;20108;-68
2022/06/08 02:59:50;;;;;;;21.73;15.77;;;17.40;77.80;;;;;;5034132;28;20029;-68
2022/06/08 03:02:28;;;;;;;19.45;14.10;;;17.40;77.90;;;;;;5036271;28;20017;-68
2022/06/08 03:05:10;;;;;;;22.05;14.65;;;17.40;77.90;;;;;;5037500;28;20079;-68
2022/06/08 03:07:56;;;;;;;19.02;15.02;;;17.30;77.90;;;;;;5040160;28;20108;-68
2022/06/08 03:10:26;;;;;;;17.80;13.88;;;17.30;77.90;;;;;;5016680;28;20056;-68
2022/06/08 03:13:00;;;;;;;20.33;14.70;;;17.20;78.00;;;;;;5032941;28;20104;-68
2022/06/08 03:15:26;;;;;;;21.98;15.52;;;17.20;78.10;;;;;;5033073;28;20036;-68
2022/06/08 03:17:53;;;;;;;21.25;15.82;;;17.20;78.10;;;;;;5033603;28;20354;-68
2022/06/08 03:20:24;;;;;;;20.30;14.70;;;17.20;78.10;;;;;;5034195;28;20344;-66
2022/06/08 03:22:51;;;;;;;19.90;14.57;;;17.20;78.10;;;;;;5033652;28;20021;-66
2022/06/08 03:25:17;;;;;;;20.35;14.38;;;17.20;78.10;;;;;;5034521;28;20033;-68
2022/06/08 03:27:46;;;;;;;18.58;14.18;;;17.20;78.20;;;;;;5034538;28;20033;-66
2022/06/08 03:30:14;;;;;;;19.33;13.95;;;17.10;78.20;;;;;;5017333;28;20026;-66
2022/06/08 03:32:41;;;;;;;20.55;14.75;;;17.10;78.20;;;;;;5032565;28;20026;-66
2022/06/08 03:35:09;;;;;;;19.00;14.00;;;17.10;78.20;;;;;;5034098;28;20477;-66
2022/06/08 03:37:37;;;;;;;19.05;14.57;;;17.10;78.20;;;;;;5036064;28;20128;-66
2022/06/08 03:40:05;;;;;;;19.75;14.70;;;17.20;78.30;;;;;;5037149;28;20028;-66
2022/06/08 03:42:31;;;;;;;19.80;15.18;;;17.20;78.30;;;;;;5039345;28;20017;-66
2022/06/08 03:44:57;;;;;;;19.65;15.77;;;17.20;78.30;;;;;;5049128;28;20373;-66
2022/06/08 03:47:26;;;;;;;19.30;14.35;;;17.20;78.30;;;;;;5052384;28;20510;-66
2022/06/08 03:49:55;;;;;;;19.58;15.27;;;17.20;78.30;;;;;;5051699;28;20409;-66
2022/06/08 03:52:24;;;;;;;23.00;15.80;;;17.20;78.40;;;;;;5051889;28;20044;-66
2022/06/08 03:54:55;;;;;;;19.88;15.82;;;17.20;78.40;;;;;;5046458;28;20033;-66
2022/06/08 03:57:22;;;;;;;21.55;16.38;;;17.20;78.40;;;;;;5048451;28;20033;-66
2022/06/08 03:59:49;;;;;;;22.42;16.33;;;17.20;78.30;;;;;;5024780;28;20048;-66
2022/06/08 04:02:16;;;;;;;21.52;16.90;;;17.30;78.40;;;;;;5039516;28;20029;-66
2022/06/08 04:04:45;;;;;;;24.65;16.75;;;17.20;78.30;;;;;;5035877;28;20112;-66
2022/06/08 04:07:11;;;;;;;21.80;17.13;;;17.30;78.30;;;;;;5039868;28;20039;-65
2022/06/08 04:09:41;;;;;;;21.13;17.48;;;17.30;78.30;;;;;;5034003;28;20037;-65
2022/06/08 04:12:09;;;;;;;21.67;16.92;;;17.30;78.20;;;;;;5038359;28;20022;-65
2022/06/08 04:14:35;;;;;;;21.83;17.15;;;17.30;78.30;;;;;;5033453;28;20049;-65
2022/06/08 04:17:01;;;;;;;23.45;18.48;;;17.30;78.30;;;;;;5054109;28;20128;-65
2022/06/08 04:19:29;;;;;;;24.35;19.35;;;17.30;78.20;;;;;;5053500;28;20071;-65
2022/06/08 04:21:55;;;;;;;21.58;17.83;;;17.30;78.20;;;;;;5053981;28;20025;-65
2022/06/08 04:24:23;;;;;;;24.65;19.35;;;17.30;78.20;;;;;;5053661;28;20035;-65
2022/06/08 04:26:53;;;;;;;22.48;17.98;;;17.30;78.30;;;;;;5038354;28;20452;-65
2022/06/08 04:29:28;;;;;;;22.08;17.63;;;17.30;78.30;;;;;;5048015;28;20090;-65
2022/06/08 04:31:54;;;;;;;24.50;18.65;;;17.30;78.30;;;;;;5049160;28;20021;-65
2022/06/08 04:34:24;;;;;;;21.67;17.20;;;17.30;78.40;;;;;;5035439;28;20026;-65
2022/06/08 04:36:50;;;;;;;24.33;18.25;;;17.30;78.40;;;;;;5038890;28;20058;-65
2022/06/08 04:39:18;;;;;;;22.77;18.05;;;17.40;78.50;;;;;;5023505;28;20033;-65
2022/06/08 04:41:51;;;;;;;22.25;18.48;;;17.40;78.40;;;;;;5041241;28;20017;-65
2022/06/08 04:44:17;;;;;;;24.15;18.52;;;17.40;78.40;;;;;;5044076;28;20025;-65
2022/06/08 04:46:44;;;;;;;22.65;18.90;;;17.50;78.30;;;;;;5037171;28;20053;-65
2022/06/08 04:49:15;;;;;;;24.52;19.02;;;17.50;78.30;;;;;;5053179;28;20021;-65
2022/06/08 04:51:42;;;;;;;22.23;18.40;;;17.50;78.20;;;;;;5037234;28;20471;-65
2022/06/08 04:54:08;;;;;;;23.30;17.52;;;17.60;78.20;;;;;;5041960;28;20079;-65
2022/06/08 04:56:34;;;;;;;25.42;18.40;;;17.60;78.10;;;;;;5044320;28;20036;-65
2022/06/08 04:59:01;;;;;;;23.58;18.15;;;17.70;78.00;;;;;;5051203;28;20025;-66
2022/06/08 05:01:30;;;;;;;21.48;16.58;;;17.70;77.90;;;;;;5033083;28;20052;-66
2022/06/08 05:03:58;;;;;;;20.77;16.45;;;17.80;77.90;;;;;;5027128;28;20040;-65
2022/06/08 05:06:23;;;;;;;21.10;17.15;;;17.90;78.50;;;;;;5040144;28;20072;-66
2022/06/08 05:08:50;;;;;;;20.75;16.65;;;17.90;77.70;;;;;;5043804;28;20030;-65
2022/06/08 05:11:16;;;;;;;19.40;16.08;;;17.90;77.70;;;;;;5037377;28;20049;-65
2022/06/08 05:13:43;;;;;;;18.48;16.00;;;18.00;77.80;;;;;;5049705;28;20025;-66
2022/06/08 05:16:11;;;;;;;18.67;15.10;;;18.00;77.70;;;;;;5041850;28;20095;-66
2022/06/08 05:18:42;;;;;;;19.88;16.35;;;18.00;77.60;;;;;;5035039;28;20462;-65
2022/06/08 05:21:14;;;;;;;18.33;14.32;;;18.10;77.50;;;;;;5047522;28;20026;-66
2022/06/08 05:23:43;;;;;;;18.95;14.73;;;18.20;77.40;;;;;;5043950;28;20326;-65
2022/06/08 05:26:13;;;;;;;19.27;14.30;;;18.20;77.30;;;;;;5054644;28;20025;-65
2022/06/08 05:28:41;;;;;;;17.80;14.05;;;18.30;77.30;;;;;;5052386;28;20068;-65
2022/06/08 05:31:09;;;;;;;18.38;14.73;;;18.30;77.30;;;;;;5020354;28;20029;-65
2022/06/08 05:33:37;;;;;;;19.67;15.10;;;18.30;77.30;;;;;;5044757;28;20063;-66
2022/06/08 05:36:11;;;;;;;18.30;14.20;;;18.30;77.30;;;;;;5047357;28;20024;-65
2022/06/08 05:38:39;;;;;;;18.45;14.98;;;18.40;77.40;;;;;;5027094;28;20017;-65
2022/06/08 05:41:05;;;;;;;16.23;13.43;;;18.40;77.40;;;;;;5039916;28;20025;-65
2022/06/08 05:43:34;;;;;;;17.40;13.43;;;18.40;77.40;;;;;;5026611;28;20024;-65
2022/06/08 05:45:59;;;;;;;16.75;13.27;;;18.40;77.40;;;;;;5039539;28;20104;-67
2022/06/08 05:48:26;;;;;;;19.15;14.43;;;18.40;77.50;;;;;;5042854;28;20039;-67
2022/06/08 05:50:52;;;;;;;18.77;14.43;;;18.40;77.50;;;;;;5042991;28;20032;-67
2022/06/08 05:53:21;;;;;;;17.92;14.18;;;18.40;77.50;;;;;;5039141;28;20043;-67
2022/06/08 05:55:46;;;;;;;17.23;14.32;;;18.40;77.50;;;;;;5035047;28;20029;-68
2022/06/08 05:58:13;;;;;;;18.67;14.25;;;18.40;77.50;;;;;;5041337;28;20014;-68
2022/06/08 06:00:42;;;;;;;17.85;14.80;;;18.40;77.50;;;;;;5038610;28;20025;-67
2022/06/08 06:03:09;;;;;;;16.60;12.90;;;18.50;77.60;;;;;;5039100;28;20108;-67
2022/06/08 06:05:37;;;;;;;17.63;13.10;;;18.50;77.60;;;;;;5039290;28;20099;-67
2022/06/08 06:08:08;;;;;;;16.88;12.90;;;18.50;77.50;;;;;;5035766;28;20021;-67
2022/06/08 06:10:40;;;;;;;16.58;12.45;;;18.60;77.50;;;;;;5036995;28;20059;-67
2022/06/08 06:13:06;;;;;;;15.38;11.73;;;18.60;77.40;;;;;;5038302;28;20132;-67
2022/06/08 06:15:43;;;;;;;15.32;10.48;;;18.70;77.20;;;;;;5034454;28;20026;-67
2022/06/08 06:18:09;;;;;;;14.63;11.57;;;18.80;77.10;;;;;;5018724;28;20025;-68
2022/06/08 06:20:39;;;;;;;13.88;10.02;;;18.80;76.90;;;;;;5034450;28;20021;-67
2022/06/08 06:23:19;;;;;;;12.48;9.50;;;18.80;76.90;;;;;;5038954;28;20108;-67
2022/06/08 06:25:55;;;;;;;13.48;9.80;;;18.80;76.90;;;;;;5033425;28;20470;-67
2022/06/08 06:28:27;;;;;;;15.88;9.68;;;18.80;76.90;;;;;;5043327;28;20030;-68
2022/06/08 06:31:23;;;;;;;12.10;8.75;;;18.80;76.80;;;;;;5034960;28;20429;-67
2022/06/08 06:33:58;;;;;;;14.45;9.90;;;18.80;76.70;;;;;;5038435;28;20067;-67
2022/06/08 06:36:24;;;;;;;13.35;9.82;;;18.90;76.60;;;;;;5020396;28;20030;-67
2022/06/08 06:38:51;;;;;;;13.82;9.95;;;18.90;76.40;;;;;;5034728;28;20087;-67
2022/06/08 06:41:17;;;;;;;11.25;8.68;;;19.00;76.40;;;;;;5035647;28;20409;-67
2022/06/08 06:43:45;;;;;;;13.20;8.75;;;19.00;76.10;;;;;;5017281;28;20068;-67
2022/06/08 06:46:31;;;;;;;10.98;7.65;;;19.10;76.00;;;;;;5035373;28;20037;-67
2022/06/08 06:49:02;;;;;;;11.18;7.60;;;19.10;75.90;;;;;;5034771;28;20025;-67
2022/06/08 06:51:30;;;;;;;11.35;8.18;;;19.10;75.80;;;;;;5033829;28;20057;-68
2022/06/08 06:53:55;;;;;;;11.00;7.68;;;19.10;75.70;;;;;;5033809;28;20053;-68
2022/06/08 06:56:21;;;;;;;11.02;7.55;;;19.10;75.60;;;;;;5017883;28;20129;-68
2022/06/08 06:58:54;;;;;;;11.07;6.97;;;19.10;75.60;;;;;;5034106;28;20083;-68
2022/06/08 07:01:21;;;;;;;13.02;7.28;;;19.20;75.60;;;;;;5034056;28;20027;-68
2022/06/08 07:03:47;;;;;;;9.93;6.75;;;19.20;75.50;;;;;;5036505;28;20017;-68
2022/06/08 07:06:13;;;;;;;10.93;7.15;;;19.20;75.50;;;;;;5038230;28;20075;-69
2022/06/08 07:08:39;;;;;;;10.73;6.50;;;19.20;75.40;;;;;;5035156;28;20025;-69
2022/06/08 07:13:52;;;;;;;9.98;6.05;;;19.40;75.20;;;;;;5033322;28;20116;-67
2022/06/08 07:16:18;;;;;;;10.23;6.60;;;19.40;74.90;;;;;;5021209;28;20026;-66
2022/06/08 07:18:44;;;;;;;10.15;6.03;;;19.40;74.80;;;;;;5020632;28;20034;-67
2022/06/08 07:21:11;;;;;;;9.95;5.40;;;19.50;74.70;;;;;;5033486;28;20029;-67
2022/06/08 07:23:37;;;;;;;10.65;6.20;;;19.50;74.70;;;;;;5038966;28;20405;-67
2022/06/08 07:26:03;;;;;;;8.95;5.38;;;19.50;74.50;;;;;;5040763;28;20025;-66
2022/06/08 07:28:28;;;;;;;9.52;5.30;;;19.60;74.50;;;;;;5034914;28;20392;-66
2022/06/08 07:30:55;;;;;;;14.88;5.88;;;19.60;74.40;;;;;;5037234;28;20351;-66
2022/06/08 07:33:20;;;;;;;9.27;4.57;;;19.60;74.30;;;;;;5041827;28;20021;-65
2022/06/08 07:35:47;;;;;;;10.55;5.70;;;19.50;74.30;;;;;;5039742;28;20066;-66
2022/06/08 07:38:13;;;;;;;7.85;4.28;;;19.50;74.20;;;;;;5033690;28;20034;-65
2022/06/08 07:40:38;;;;;;;10.25;4.65;;;19.50;74.10;;;;;;5034179;28;20083;-68
2022/06/08 07:43:04;;;;;;;12.80;5.05;;;19.50;74.00;;;;;;5033943;28;20032;-66
2022/06/08 07:45:30;;;;;;;9.10;5.10;;;19.50;73.90;;;;;;5037281;28;20040;-66
2022/06/08 07:50:43;;;;;;;8.93;4.47;;;19.60;73.80;;;;;;5054621;28;20096;-66
2022/06/08 07:53:09;;;;;;;8.23;4.68;;;19.70;73.60;;;;;;5055161;28;20056;-66
2022/06/08 07:55:35;;;;;;;7.07;3.75;;;19.80;73.40;;;;;;5053977;28;20138;-66
2022/06/08 07:58:03;;;;;;;8.48;4.55;;;19.80;73.30;;;;;;5053110;28;20431;-66
2022/06/08 08:00:29;;;;;;;7.55;4.43;;;19.80;73.00;;;;;;5049127;28;20028;-66
2022/06/08 08:02:55;;;;;;;8.43;4.25;;;19.90;72.90;;;;;;5053918;28;20036;-65
2022/06/08 08:05:22;;;;;;;6.55;3.80;;;19.90;72.80;;;;;;5054264;28;20071;-66
2022/06/08 08:07:48;;;;;;;9.30;4.20;;;19.90;72.60;;;;;;5050731;28;20039;-66
2022/06/08 08:10:18;;;;;;;7.47;4.28;;;20.00;72.60;;;;;;5045680;28;20116;-66
2022/06/08 08:12:46;;;;;;;7.75;3.45;;;20.20;72.30;;;;;;5054809;28;20052;-70
2022/06/08 08:15:11;;;;;;;7.85;3.90;;;20.40;72.50;;;;;;5054565;28;20116;-66
2022/06/08 08:17:38;;;;;;;7.03;4.00;;;20.60;71.40;;;;;;5053589;28;20029;-66
2022/06/08 08:20:08;;;;;;;6.97;3.78;;;20.70;70.90;;;;;;5054538;28;20044;-66
2022/06/08 08:22:33;;;;;;;7.00;3.83;;;20.80;70.70;;;;;;5053706;28;20044;-66
2022/06/08 08:24:59;;;;;;;9.27;3.55;;;20.90;70.50;;;;;;5043561;28;20028;-65
2022/06/08 08:27:25;;;;;;;7.40;3.25;;;21.10;70.00;;;;;;5052995;28;20036;-66
2022/06/08 08:29:51;;;;;;;6.80;3.72;;;21.40;69.50;;;;;;5054037;28;20037;-66
2022/06/08 08:32:16;;;;;;;7.32;3.53;;;21.50;68.90;;;;;;5053678;28;20045;-66
2022/06/08 08:34:42;;;;;;;7.57;3.20;;;21.70;68.50;;;;;;5053629;28;20037;-66
2022/06/08 08:37:08;;;;;;;6.72;2.90;;;22.10;68.00;;;;;;5054250;28;20327;-66
2022/06/08 08:39:34;;;;;;;5.93;2.92;;;22.40;67.30;;;;;;5041040;28;20043;-66
2022/06/08 08:44:49;;;;;;;6.18;3.20;;;22.80;65.50;;;;;;5042243;28;20493;-66
2022/06/08 08:47:27;;;;;;;6.33;2.90;;;22.80;65.40;;;;;;5052146;28;20468;-65
2022/06/08 08:49:55;;;;;;;6.22;3.15;;;22.70;65.50;;;;;;5055935;28;20428;-66
2022/06/08 08:52:48;;;;;;;6.00;2.85;;;22.70;65.70;;;;;;5058588;28;20025;-66
2022/06/08 08:55:27;;;;;;;7.53;2.92;;;22.70;65.60;;;;;;5053073;28;20025;-66
2022/06/08 08:57:56;;;;;;;5.65;2.35;;;22.80;65.30;;;;;;5046106;28;20040;-65
2022/06/08 09:00:36;;;;;;;6.18;2.55;;;22.80;65.00;;;;;;5050323;28;20389;-65
2022/06/08 09:03:14;;;;;;;7.30;2.72;;;22.80;64.80;;;;;;5044181;28;20071;-66
2022/06/08 09:05:42;;;;;;;5.57;2.42;;;22.70;64.70;;;;;;5046985;28;20358;-66
2022/06/08 09:08:11;;;;;;;6.88;2.83;;;22.60;64.80;;;;;;5047118;28;20449;-65
2022/06/08 09:10:37;;;;;;;6.43;2.70;;;22.50;64.90;;;;;;5025893;28;20054;-65
2022/06/08 09:13:04;;;;;;;6.97;2.72;;;22.40;65.00;;;;;;5039277;28;20507;-65
2022/06/08 09:15:57;;;;;;;6.97;2.83;;;22.40;65.00;;;;;;5036902;28;20060;-65
2022/06/08 09:18:34;;;;;;;6.68;2.67;;;22.50;65.00;;;;;;5041033;28;20048;-65
2022/06/08 09:21:21;;;;;;;7.10;2.97;;;22.50;64.70;;;;;;5036290;28;20063;-66
2022/06/08 09:23:51;;;;;;;7.32;3.08;;;22.50;64.50;;;;;;5051851;28;20049;-65
2022/06/08 09:26:28;;;;;;;8.18;3.10;;;22.60;64.40;;;;;;5046541;28;20033;-65
2022/06/08 09:29:00;;;;;;;8.20;3.22;;;22.50;64.10;;;;;;5047551;28;20030;-66
2022/06/08 09:31:33;;;;;;;7.13;2.90;;;22.40;64.30;;;;;;5043315;28;20032;-66
2022/06/08 09:34:18;;;;;;;7.47;2.75;;;22.20;64.50;;;;;;5038527;28;20107;-66
2022/06/08 09:36:45;;;;;;;6.38;2.85;;;22.10;64.70;;;;;;5056374;28;20029;-66
2022/06/08 09:39:18;;;;;;;7.88;3.33;;;22.00;64.90;;;;;;5054468;28;20074;-65
2022/06/08 09:41:50;;;;;;;8.30;2.95;;;22.00;65.00;;;;;;5056825;28;20056;-67
2022/06/08 09:44:31;;;;;;;8.30;3.20;;;22.00;65.00;;;;;;5039699;28;20040;-66
2022/06/08 09:53:50;;;;;;;19.48;12.07;;;21.90;65.80;;;;;;5001725;28;20042;-66
2022/06/08 09:56:42;;;;;;;15.43;10.40;;;21.80;65.50;;;;;;5034799;28;20132;-65
2022/06/08 09:59:35;;;;;;;13.20;7.88;;;21.70;65.80;;;;;;5035802;28;20538;-66
2022/06/08 10:02:40;;;;;;;10.70;5.47;;;21.70;66.10;;;;;;5012756;28;20021;-66
2022/06/08 10:05:28;;;;;;;9.43;4.05;;;21.60;66.20;;;;;;5009189;28;20077;-66
2022/06/08 10:08:05;;;;;;;7.03;3.25;;;21.50;66.40;;;;;;5009975;28;20053;-66
2022/06/08 10:10:34;;;;;;;7.10;2.90;;;21.50;66.50;;;;;;5023840;28;20071;-66
2022/06/08 10:13:07;;;;;;;8.38;2.88;;;21.50;66.50;;;;;;5017367;28;20033;-66
2022/06/08 10:15:52;;;;;;;8.23;2.95;;;21.50;66.40;;;;;;5018243;28;20495;-68
2022/06/08 10:18:28;;;;;;;6.57;2.53;;;21.40;66.30;;;;;;5029855;28;20045;-68
2022/06/08 10:21:03;;;;;;;10.30;2.50;;;21.30;66.40;;;;;;5019970;28;20171;-68
2022/06/08 10:23:44;;;;;;;7.32;2.45;;;21.40;66.50;;;;;;5024693;28;20060;-67
2022/06/08 10:26:37;;;;;;;7.68;3.03;;;21.40;66.50;;;;;;5020107;28;20020;-67
2022/06/08 10:29:26;;;;;;;8.65;2.70;;;21.30;66.30;;;;;;5047629;28;20044;-66
2022/06/08 10:32:04;;;;;;;6.45;2.63;;;21.30;66.70;;;;;;5051220;28;20033;-66
2022/06/08 10:34:32;;;;;;;9.02;3.13;;;21.30;67.60;;;;;;5056250;28;20032;-65
2022/06/08 10:37:22;;;;;;;7.68;2.60;;;21.20;66.90;;;;;;5048929;28;20029;-66
2022/06/08 10:39:49;;;;;;;8.20;3.05;;;21.20;67.00;;;;;;5043615;28;20036;-66
2022/06/08 10:42:47;;;;;;;7.47;2.83;;;21.20;67.10;;;;;;5039644;28;20453;-67
2022/06/08 10:45:22;;;;;;;7.60;3.05;;;21.10;67.70;;;;;;5027967;28;20049;-66
2022/06/08 10:48:03;;;;;;;5.78;2.60;;;21.20;67.10;;;;;;5034759;28;20029;-66
2022/06/08 10:50:33;;;;;;;6.50;2.35;;;21.20;66.90;;;;;;5044134;28;20029;-66
2022/06/08 10:56:23;;;;;;;5.97;2.17;;;21.30;66.60;;;;;;5034823;28;20057;-66
2022/06/08 10:58:57;;;;;;;8.55;2.33;;;21.30;66.50;;;;;;5035015;28;20477;-66
2022/06/08 11:01:38;;;;;;;5.28;2.08;;;21.20;66.40;;;;;;5035771;28;20063;-66
2022/06/08 11:04:06;;;;;;;;;;;21.10;66.40;;;;;;5035836;28;20028;-67
2022/06/08 11:06:51;;;;;;;6.88;2.38;;;20.90;66.70;;;;;;5052518;28;19908;-66
2022/06/08 11:09:44;;;;;;;5.97;2.10;;;20.80;67.50;;;;;;5037663;28;20458;-66
2022/06/08 11:12:13;;;;;;;7.15;2.83;;;20.70;68.20;;;;;;5037155;28;20045;-66
2022/06/08 11:14:48;;;;;;;8.15;2.72;;;20.60;68.60;;;;;;5034924;28;20359;-66
2022/06/08 11:17:28;;;;;;;11.60;5.43;;;20.50;69.30;;;;;;5032559;28;20426;-66
2022/06/08 11:20:17;;;;;;;10.65;5.28;;;20.40;70.00;;;;;;5043877;28;20087;-65
2022/06/08 11:22:55;;;;;;;11.07;6.03;;;20.40;70.30;;;;;;5035558;28;20128;-66
2022/06/08 11:25:50;;;;;;;28.85;22.15;;;20.40;70.50;;;;;;5027679;28;20026;-66
2022/06/08 11:28:32;;;;;;;13.80;6.60;;;20.40;70.70;;;;;;5038959;28;20402;-67
2022/06/08 11:30:59;;;;;;;;;;;20.50;70.60;;;;;;5037093;28;20022;-66
2022/06/08 11:33:48;;;;;;;10.23;4.60;;;20.50;70.30;;;;;;5041146;28;19908;-66
2022/06/08 11:36:47;;;;;;;13.27;3.92;;;20.50;70.50;;;;;;5033945;28;20044;-66
2022/06/08 11:39:38;;;;;;;6.13;2.60;;;20.60;70.50;;;;;;5034455;28;20021;-66
2022/06/08 11:42:25;;;;;;;7.28;2.65;;;20.60;70.40;;;;;;5040100;28;20083;-65
2022/06/08 11:44:55;;;;;;;8.07;2.58;;;20.60;70.30;;;;;;5033448;28;20026;-65
2022/06/08 11:47:33;;;;;;;6.83;2.40;;;20.50;70.50;;;;;;5043069;28;20108;-66
2022/06/08 11:50:03;;;;;;;6.13;2.20;;;20.50;70.50;;;;;;5036365;28;20053;-65
2022/06/08 11:52:31;;;;;;;6.95;2.60;;;20.40;70.50;;;;;;5043168;28;20028;-65
2022/06/08 11:55:05;;;;;;;5.07;2.28;;;20.40;70.40;;;;;;5036514;28;20108;-65
2022/06/08 11:57:32;;;;;;;7.93;2.30;;;20.40;70.40;;;;;;5038555;28;20032;-65
2022/06/08 11:59:59;;;;;;;6.10;2.20;;;20.30;70.50;;;;;;5034108;28;20058;-65
2022/06/08 12:02:36;;;;;;;9.38;2.50;;;20.20;70.40;;;;;;5040561;28;20339;-65
2022/06/08 12:05:04;;;;;;;6.88;2.55;;;20.20;70.50;;;;;;5036769;28;20127;-65
2022/06/08 12:07:42;;;;;;;4.40;2.10;;;20.20;70.80;;;;;;5033457;28;20103;-65
2022/06/08 12:10:13;;;;;;;8.48;2.40;;;20.10;71.00;;;;;;5041040;28;20377;-65
2022/06/08 12:12:42;;;;;;;6.28;2.30;;;20.00;71.10;;;;;;5035113;28;20435;-65
2022/06/08 12:15:26;;;;;;;7.32;2.40;;;20.00;71.50;;;;;;5037755;28;20044;-65
2022/06/08 12:17:53;;;;;;;5.10;2.20;;;19.90;71.80;;;;;;5036605;28;20446;-65
2022/06/08 12:20:37;;;;;;;6.35;2.33;;;19.80;72.10;;;;;;5033331;28;20041;-65
2022/06/08 12:23:04;;;;;;;6.15;2.05;;;19.80;72.50;;;;;;5050671;28;20044;-65
2022/06/08 12:25:31;;;;;;;5.30;2.10;;;19.70;72.40;;;;;;5032306;28;20057;-65
2022/06/08 12:28:00;;;;;;;5.00;2.22;;;19.70;72.30;;;;;;5034934;28;20143;-65
2022/06/08 12:30:33;;;;;;;6.63;2.13;;;19.70;72.30;;;;;;5044156;28;20129;-65
2022/06/08 12:33:16;;;;;;;7.13;2.17;;;19.70;72.10;;;;;;5032727;28;20056;-65
2022/06/08 12:36:09;;;;;;;6.45;2.30;;;19.60;72.30;;;;;;5036030;28;20037;-65
2022/06/08 12:38:58;;;;;;;5.82;2.00;;;19.60;72.70;;;;;;5034632;28;20439;-65
2022/06/08 12:41:48;;;;;;;4.63;2.00;;;19.60;73.50;;;;;;5027513;28;20033;-65
2022/06/08 12:44:19;;;;;;;6.32;2.35;;;19.70;73.10;;;;;;5034671;28;20033;-66
2022/06/08 12:47:09;;;;;;;6.17;2.10;;;19.60;73.00;;;;;;5033259;28;20100;-66
2022/06/08 12:50:01;;;;;;;5.07;1.93;;;19.60;73.20;;;;;;5032714;28;20029;-65
2022/06/08 12:52:33;;;;;;;5.70;2.10;;;19.60;73.10;;;;;;5033865;28;20030;-65
2022/06/08 12:54:59;;;;;;;7.05;2.45;;;19.60;73.20;;;;;;5033127;28;20059;-65
2022/06/08 12:57:30;;;;;;;4.93;2.10;;;19.60;73.60;;;;;;5032223;28;20014;-65
2022/06/08 12:59:59;;;;;;;8.00;2.10;;;19.60;73.90;;;;;;5031065;28;20454;-65
2022/06/08 13:02:34;;;;;;;8.32;2.38;;;19.60;73.70;;;;;;5036609;28;20446;-65
2022/06/08 13:05:03;;;;;;;6.97;2.67;;;19.60;73.60;;;;;;5030410;28;20037;-65
2022/06/08 13:07:31;;;;;;;5.95;2.30;;;19.50;73.70;;;;;;5042524;28;20076;-64
2022/06/08 13:09:58;;;;;;;7.50;2.15;;;19.50;74.10;;;;;;5036157;28;20052;-64
2022/06/08 13:12:31;;;;;;;6.47;2.67;;;19.50;74.30;;;;;;5032340;28;20174;-64
2022/06/08 13:14:58;;;;;;;4.60;1.70;;;19.50;74.50;;;;;;5031658;28;20030;-64
2022/06/08 13:17:28;;;;;;;5.57;2.20;;;19.50;74.50;;;;;;5033260;28;20022;-65
2022/06/08 13:19:57;;;;;;;6.40;2.22;;;19.50;74.30;;;;;;5038158;28;20079;-64
2022/06/08 13:22:25;;;;;;;6.20;1.83;;;19.50;74.30;;;;;;5039479;28;20113;-64